Time;durP1;ratioP1;P1;durP2;ratioP2;P2;SDS_P1;SDS_P2;PMS_P1;PMS_P2;Temp;Humidity;BMP_temperature;BMP_pressure;BME280_temperature;BME280_humidity;BME280_pressure;Samples;Min_cycle;Max_cycle;Signal;HPM_P1;HPM_P2
2022/06/25 00:00:31;;;;;;;;;2.00;2.00;;;;;20.69;52.87;100647.72;6281887;22;45200;-82
2022/06/25 00:02:56;;;;;;;;;1.00;1.00;;;;;20.67;52.84;100636.22;6280991;22;45339;-83
2022/06/25 00:05:28;;;;;;;;;1.67;0.67;;;;;20.66;52.67;100637.13;6281423;22;45213;-83
2022/06/25 00:07:56;;;;;;;;;2.33;0.67;;;;;20.64;52.99;100631.88;6280185;22;45244;-83
2022/06/25 00:10:22;;;;;;;;;1.00;1.00;;;;;20.64;52.83;100633.69;6273382;22;45525;-82
2022/06/25 00:12:48;;;;;;;;;1.00;1.00;;;;;20.64;52.87;100634.56;6273694;22;45732;-83
2022/06/25 00:15:14;;;;;;;;;3.00;2.00;;;;;20.65;53.16;100648.78;6273645;22;47460;-83
2022/06/25 00:17:39;;;;;;;;;1.00;1.00;;;;;20.63;52.99;100640.81;6250121;22;45168;-83
2022/06/25 00:20:06;;;;;;;;;1.33;1.33;;;;;20.62;52.83;100639.09;6247314;22;45268;-83
2022/06/25 00:22:32;;;;;;;;;3.00;2.00;;;;;20.60;53.05;100637.44;6247842;22;45489;-82
2022/06/25 00:24:57;;;;;;;;;1.67;1.67;;;;;20.61;53.52;100639.16;6273823;22;46871;-82
2022/06/25 00:27:22;;;;;;;;;1.00;1.00;;;;;20.60;52.74;100626.72;6250438;22;45078;-82
2022/06/25 00:29:48;;;;;;;;;1.00;1.00;;;;;20.59;53.40;100633.03;6275258;22;45389;-82
2022/06/25 00:32:14;;;;;;;;;0.67;0.67;;;;;20.60;53.62;100632.09;6240276;22;45399;-82
2022/06/25 00:34:40;;;;;;;;;2.00;2.00;;;;;20.60;53.43;100627.59;6274046;22;47713;-81
2022/06/25 00:37:07;;;;;;;;;3.00;2.00;;;;;20.64;53.31;100631.00;6250189;22;45141;-82
2022/06/25 00:39:33;;;;;;;;;0.67;0.67;;;;;20.65;53.35;100632.75;6250299;22;45287;-81
2022/06/25 00:41:58;;;;;;;;;0.67;0.67;;;;;20.62;53.29;100633.75;6249521;22;45530;-83
2022/06/25 00:44:25;;;;;;;;;1.67;1.67;;;;;;;;6273709;22;46049;-82
2022/06/25 00:46:51;;;;;;;;;1.00;1.00;;;;;20.67;53.23;100637.06;6249817;22;45335;-83
2022/06/25 00:49:16;;;;;;;;;2.67;0.67;;;;;20.68;53.06;100638.81;6248105;22;45337;-82
2022/06/25 00:51:47;;;;;;;;;1.67;1.67;;;;;20.70;53.49;100641.41;6274302;22;45156;-83
2022/06/25 00:54:16;;;;;;;;;2.00;2.00;;;;;20.68;53.91;100640.63;6248219;22;46944;-83
2022/06/25 00:56:48;;;;;;;;;1.67;1.67;;;;;20.70;53.54;100631.56;6248854;22;45434;-83
2022/06/25 00:59:18;;;;;;;;;2.67;2.67;;;;;20.72;53.65;100647.56;6250647;22;45341;-83
2022/06/25 01:01:44;;;;;;;;;2.00;1.33;;;;;20.73;53.42;100643.94;6249924;22;45161;-83
2022/06/25 01:04:09;;;;;;;;;2.00;2.00;;;;;20.72;53.46;100647.56;6250258;22;46452;-83
2022/06/25 01:06:34;;;;;;;;;3.00;2.33;;;;;20.73;53.62;100654.66;6250474;22;45271;-83
2022/06/25 01:09:00;;;;;;;;;1.67;1.67;;;;;20.70;53.67;100650.31;6247906;22;45121;-83
2022/06/25 01:11:26;;;;;;;;;3.00;3.00;;;;;20.66;53.85;100654.09;6248857;22;45504;-83
2022/06/25 01:13:52;;;;;;;;;3.00;2.00;;;;;20.64;53.97;100649.75;6248596;22;47417;-83
2022/06/25 01:16:19;;;;;;;;;1.33;1.33;;;;;20.60;54.06;100654.34;6248204;22;45380;-83
2022/06/25 01:18:44;;;;;;;;;3.00;2.00;;;;;20.57;54.09;100654.50;6248187;22;45391;-84
2022/06/25 01:21:10;;;;;;;;;1.67;1.00;;;;;20.55;54.13;100656.38;6250014;22;45504;-82
2022/06/25 01:23:35;;;;;;;;;2.00;2.00;;;;;20.49;54.71;100649.47;6273927;22;47012;-83
2022/06/25 01:26:01;;;;;;;;;2.33;1.33;;;;;20.47;54.66;100655.81;6250938;22;45340;-83
2022/06/25 01:28:26;;;;;;;;;3.33;2.00;;;;;20.46;54.53;100651.44;6248419;22;45698;-83
2022/06/25 01:30:52;;;;;;;;;1.00;1.00;;;;;20.45;55.20;100647.88;6248127;22;45686;-83
2022/06/25 01:33:17;;;;;;;;;2.67;2.67;;;;;20.45;54.74;100655.91;6273832;22;45480;-83
2022/06/25 01:35:42;;;;;;;;;3.00;2.00;;;;;20.44;54.78;100648.81;6244741;22;45197;-83
2022/06/25 01:38:08;;;;;;;;;5.00;3.33;;;;;20.45;55.00;100647.03;6274357;22;45395;-83
2022/06/25 01:40:33;;;;;;;;;2.00;2.00;;;;;20.46;55.20;100649.63;6250115;22;45512;-83
2022/06/25 01:43:00;;;;;;;;;2.67;2.33;;;;;20.48;55.19;100654.91;6248496;22;46984;-83
2022/06/25 01:45:31;;;;;;;;;2.00;2.00;;;;;20.46;55.01;100651.44;6248345;22;45176;-83
2022/06/25 01:47:58;;;;;;;;;4.33;3.33;;;;;20.42;55.01;100644.47;6247453;22;45237;-82
2022/06/25 01:50:24;;;;;;;;;3.00;2.00;;;;;20.43;54.80;100651.56;6273629;22;45716;-83
2022/06/25 01:52:53;;;;;;;;;2.33;2.33;;;;;20.43;55.06;100649.75;6273595;22;47121;-83
2022/06/25 01:55:19;;;;;;;;;1.67;1.67;;;;;20.39;54.90;100652.63;6249789;22;45283;-83
2022/06/25 01:57:45;;;;;;;;;1.67;1.67;;;;;20.35;55.33;100661.75;6249749;22;45464;-83
2022/06/25 02:00:16;;;;;;;;;2.00;2.00;;;;;20.30;55.51;100661.09;6249723;22;45338;-83
2022/06/25 02:02:42;;;;;;;;;1.67;1.67;;;;;20.27;55.70;100659.44;6247240;22;47112;-83
2022/06/25 02:05:08;;;;;;;;;2.00;1.00;;;;;20.21;55.59;100660.56;6249914;22;45374;-82
2022/06/25 02:07:34;;;;;;;;;2.00;2.00;;;;;20.14;56.28;100656.44;6247835;22;45282;-82
2022/06/25 02:09:59;;;;;;;;;1.33;1.00;;;;;20.10;56.44;100667.31;6248767;22;45455;-83
2022/06/25 02:12:25;;;;;;;;;3.33;3.33;;;;;20.06;56.36;100658.59;6251721;22;48062;-82
2022/06/25 02:14:51;;;;;;;;;2.00;1.00;;;;;20.01;56.89;100657.91;6251899;22;45339;-83
2022/06/25 02:17:17;;;;;;;;;3.33;3.33;;;;;19.99;56.71;100666.03;6252619;22;45406;-82
2022/06/25 02:19:42;;;;;;;;;2.00;2.00;;;;;19.97;56.83;100670.56;6278339;22;45241;-83
2022/06/25 02:22:08;;;;;;;;;2.33;2.00;;;;;19.93;57.18;100686.78;6251520;22;47136;-83
2022/06/25 02:24:33;;;;;;;;;2.00;2.00;;;;;19.85;57.22;100675.56;6277834;22;45372;-82
2022/06/25 02:26:59;;;;;;;;;4.00;1.00;;;;;19.78;57.60;100680.28;6277731;22;45122;-82
2022/06/25 02:29:24;;;;;;;;;2.00;2.00;;;;;19.70;58.35;100677.06;6280471;22;45165;-82
2022/06/25 02:31:50;;;;;;;;;2.00;2.00;;;;;19.63;58.94;100668.44;6280890;22;45478;-82
2022/06/25 02:34:15;;;;;;;;;1.00;1.00;;;;;19.55;58.99;100678.56;6252711;22;45947;-83
2022/06/25 02:36:41;;;;;;;;;3.00;3.00;;;;;19.47;59.59;100678.88;6279359;22;45169;-83
2022/06/25 02:39:06;;;;;;;;;2.33;1.00;;;;;19.38;60.42;100674.81;6254440;22;45184;-82
2022/06/25 02:41:31;;;;;;;;;2.67;2.67;;;;;19.34;60.47;100672.31;6279754;22;47026;-82
2022/06/25 02:43:57;;;;;;;;;2.00;2.00;;;;;19.32;60.88;100667.03;6254878;22;45323;-83
2022/06/25 02:46:22;;;;;;;;;0.33;0.33;;;;;19.28;60.78;100667.25;6284745;22;45173;-83
2022/06/25 02:48:48;;;;;;;;;2.00;2.00;;;;;19.23;61.10;100667.41;6283428;22;45192;-83
2022/06/25 02:51:13;;;;;;;;;1.00;0.67;;;;;19.21;61.50;100668.41;6255838;22;47046;-83
2022/06/25 02:53:39;;;;;;;;;5.00;3.00;;;;;19.20;61.99;100670.22;6281940;22;45295;-83
2022/06/25 02:58:56;;;;;;;;;3.33;3.00;;;;;19.25;62.27;100672.72;6282999;22;45226;-82
2022/06/25 03:01:23;;;;;;;;;2.00;2.00;;;;;19.26;61.97;100672.63;6254866;22;48019;-83
2022/06/25 03:03:49;;;;;;;;;3.00;2.00;;;;;19.26;62.14;100671.75;6254722;22;46257;-83
2022/06/25 03:06:14;;;;;;;;;2.00;2.00;;;;;19.26;61.90;100672.63;6255139;22;45429;-83
2022/06/25 03:08:40;;;;;;;;;3.00;2.00;;;;;19.24;61.59;100666.47;6282160;22;45292;-82
2022/06/25 03:11:05;;;;;;;;;4.00;3.00;;;;;19.24;61.95;100665.63;6254420;22;47819;-83
2022/06/25 03:13:34;;;;;;;;;3.33;2.00;;;;;19.22;62.13;100668.38;6256806;22;45645;-84
2022/06/25 03:16:00;;;;;;;;;1.33;1.33;;;;;19.21;62.08;100669.28;6255864;22;45223;-82
2022/06/25 03:18:25;;;;;;;;;1.67;1.67;;;;;19.22;61.72;100671.03;6281467;22;45259;-82
2022/06/25 03:20:51;;;;;;;;;1.67;1.67;;;;;19.23;62.09;100672.75;6255246;22;46926;-83
2022/06/25 03:23:17;;;;;;;;;1.00;1.00;;;;;19.22;61.85;100667.47;6254875;22;45215;-83
2022/06/25 03:25:46;;;;;;;;;2.00;2.00;;;;;19.24;61.67;100665.63;6283209;22;44804;-83
2022/06/25 03:28:11;;;;;;;;;1.33;1.33;;;;;19.26;61.51;100669.97;6284409;22;45200;-82
2022/06/25 03:30:37;;;;;;;;;1.00;1.00;;;;;19.28;61.31;100672.59;6255116;22;48068;-83
2022/06/25 03:33:02;;;;;;;;;0.67;0.67;;;;;19.30;61.22;100674.25;6255303;22;45110;-82
2022/06/25 03:35:28;;;;;;;;;1.00;1.00;;;;;19.31;60.97;100673.31;6254644;22;45189;-83
2022/06/25 03:38:05;;;;;;;;;0.67;0.67;;;;;19.30;60.90;100676.03;6255867;22;45591;-83
2022/06/25 03:43:47;;;;;;;;;0.67;0.67;;;;;19.28;60.77;100677.91;6282292;22;45229;-82
2022/06/25 03:46:12;;;;;;;;;1.00;1.00;;;;;19.28;61.01;100680.59;6281297;22;45434;-83
2022/06/25 03:48:38;;;;;;;;;1.33;0.00;;;;;19.28;60.76;100691.28;6255260;22;45622;-83
2022/06/25 03:51:04;;;;;;;;;0.00;0.00;;;;;19.27;60.74;100690.41;6283377;22;46231;-84
2022/06/25 03:53:29;;;;;;;;;1.00;0.33;;;;;19.29;60.78;100695.66;6254656;22;45383;-83
2022/06/25 03:55:54;;;;;;;;;1.00;1.00;;;;;19.28;60.96;100694.81;6281200;22;45304;-82
2022/06/25 03:58:20;;;;;;;;;0.00;0.00;;;;;19.29;60.56;100696.53;6282648;22;45322;-83
2022/06/25 04:00:46;;;;;;;;;0.67;0.67;;;;;19.26;60.44;100685.97;6281949;22;45184;-83
2022/06/25 04:03:12;;;;;;;;;0.00;0.00;;;;;19.26;60.57;100691.31;6286019;22;45129;-82
2022/06/25 04:05:37;;;;;;;;;0.67;0.00;;;;;19.25;60.41;100686.06;6283831;22;45302;-82
2022/06/25 04:08:03;;;;;;;;;0.00;0.00;;;;;19.25;60.86;100692.25;6257253;22;45138;-82
2022/06/25 04:10:28;;;;;;;;;0.33;0.33;;;;;19.26;60.65;100703.78;6283475;22;48355;-83
2022/06/25 04:12:53;;;;;;;;;0.00;0.00;;;;;19.26;61.11;100703.78;6286280;22;45169;-84
2022/06/25 04:15:19;;;;;;;;;0.67;0.67;;;;;19.27;60.60;100698.41;6260082;22;45242;-82
2022/06/25 04:17:44;;;;;;;;;1.33;1.33;;;;;19.27;61.20;100702.84;6287072;22;45497;-83
2022/06/25 04:20:10;;;;;;;;;1.00;1.00;;;;;19.24;61.12;100705.66;6286004;22;45365;-83
2022/06/25 04:22:36;;;;;;;;;0.00;0.00;;;;;19.24;61.14;100708.31;6283820;22;45161;-82
2022/06/25 04:25:03;;;;;;;;;1.00;1.00;;;;;19.23;60.93;100706.59;6254911;22;45349;-82
2022/06/25 04:30:12;;;;;;;;;2.00;1.00;;;;;19.26;61.18;100707.31;6281751;22;45797;-83
2022/06/25 04:32:38;;;;;;;;;0.67;0.67;;;;;19.26;60.83;100711.81;6279642;22;45554;-83
2022/06/25 04:35:03;;;;;;;;;1.00;1.00;;;;;19.25;60.83;100716.28;6281395;22;45256;-83
2022/06/25 04:37:29;;;;;;;;;2.33;0.67;;;;;19.24;60.97;100719.00;6280447;22;45370;-83
2022/06/25 04:39:54;;;;;;;;;1.00;1.00;;;;;19.24;61.28;100722.53;6282281;22;50492;-82
2022/06/25 04:42:19;;;;;;;;;0.00;0.00;;;;;19.23;61.04;100718.13;6280618;22;45917;-83
2022/06/25 04:44:45;;;;;;;;;1.00;1.00;;;;;19.26;61.27;100725.16;6253587;22;45330;-83
2022/06/25 04:47:10;;;;;;;;;1.00;1.00;;;;;19.29;61.22;100727.69;6282476;22;45264;-83
2022/06/25 04:49:36;;;;;;;;;1.00;0.67;;;;;19.31;60.86;100729.38;6281946;22;46520;-88
2022/06/25 04:52:01;;;;;;;;;0.67;0.67;;;;;19.30;60.98;100734.75;6254147;22;45394;-82
2022/06/25 04:54:27;;;;;;;;;0.33;0.33;;;;;19.30;61.31;100730.31;6278290;22;45294;-81
2022/06/25 04:56:52;;;;;;;;;1.00;1.00;;;;;19.34;61.06;100725.72;6252371;22;44879;-83
2022/06/25 04:59:18;;;;;;;;;1.00;1.00;;;;;19.35;60.94;100751.47;6282009;22;46370;-80
2022/06/25 05:01:44;;;;;;;;;1.67;1.00;;;;;19.36;61.00;100738.06;6279754;22;45200;-82
2022/06/25 05:04:10;;;;;;;;;0.33;0.33;;;;;19.38;60.88;100740.69;6253869;22;45289;-83
2022/06/25 05:06:35;;;;;;;;;1.00;1.00;;;;;19.40;60.56;100746.81;6281236;22;45205;-82
2022/06/25 05:09:01;;;;;;;;;2.00;0.33;;;;;19.41;60.64;100748.56;6279053;22;47191;-80
2022/06/25 05:11:26;;;;;;;;;0.00;0.00;;;;;19.43;60.87;100754.69;6281237;22;45128;-82
2022/06/25 05:14:02;;;;;;;;;0.67;0.67;;;;;19.45;60.73;100757.31;6256695;22;45923;-82
2022/06/25 05:16:28;;;;;;;;;0.00;0.00;;;;;19.47;60.27;100761.66;6255007;22;45612;-84
2022/06/25 05:18:53;;;;;;;;;1.67;1.67;;;;;19.47;60.26;100759.00;6280257;22;47853;-83
2022/06/25 05:21:18;;;;;;;;;1.33;1.00;;;;;19.50;60.22;100777.56;6280354;22;45389;-82
2022/06/25 05:23:45;;;;;;;;;0.00;0.00;;;;;19.52;60.20;100774.84;6255004;22;45164;-84
2022/06/25 05:26:10;;;;;;;;;0.67;0.67;;;;;19.51;59.47;100778.41;6280327;22;45311;-84
2022/06/25 05:28:38;;;;;;;;;1.67;1.67;;;;;19.53;59.23;100773.91;6280864;22;47245;-84
2022/06/25 05:31:04;;;;;;;;;1.67;1.67;;;;;19.51;58.79;100771.31;6283437;22;44625;-84
2022/06/25 05:33:29;;;;;;;;;0.33;0.33;;;;;19.52;58.97;100770.38;6254572;22;45166;-84
2022/06/25 05:35:55;;;;;;;;;2.00;2.00;;;;;19.57;58.71;100764.84;6255001;22;45493;-81
2022/06/25 05:38:20;;;;;;;;;0.67;0.67;;;;;19.60;58.33;100775.41;6278855;22;47789;-83
2022/06/25 05:40:46;;;;;;;;;2.00;2.00;;;;;19.63;57.69;100782.41;6253706;22;45225;-84
2022/06/25 05:43:12;;;;;;;;;0.67;0.67;;;;;19.64;57.64;100785.00;6281815;22;45385;-86
2022/06/25 05:45:38;;;;;;;;;0.67;0.67;;;;;19.67;57.43;100773.38;6280281;22;45382;-82
2022/06/25 05:48:04;;;;;;;;;1.00;1.00;;;;;19.76;57.13;100781.03;6282643;22;46642;-82
2022/06/25 05:50:29;;;;;;;;;0.67;0.67;;;;;19.83;57.15;100775.38;6253944;22;45798;-82
2022/06/25 05:52:55;;;;;;;;;1.67;1.67;;;;;19.89;56.95;100778.69;6282216;22;45322;-85
2022/06/25 05:55:22;;;;;;;;;1.33;0.33;;;;;19.96;56.51;100774.81;6255924;22;45391;-87
2022/06/25 05:57:48;;;;;;;;;0.67;0.67;;;;;19.95;56.17;100771.28;6256816;22;47026;-83
2022/06/25 06:00:14;;;;;;;;;2.00;1.00;;;;;20.01;55.75;100772.81;6254861;22;45691;-82
2022/06/25 06:02:40;;;;;;;;;1.00;1.00;;;;;20.04;55.81;100786.94;6282516;22;45267;-85
2022/06/25 06:05:05;;;;;;;;;1.00;1.00;;;;;20.07;55.42;100787.72;6282308;22;45664;-86
2022/06/25 06:07:31;;;;;;;;;0.00;0.00;;;;;20.06;55.46;100781.53;6257792;22;47049;-85
2022/06/25 06:09:56;;;;;;;;;1.00;1.00;;;;;20.02;55.20;100779.91;6283715;22;45137;-87
2022/06/25 06:12:22;;;;;;;;;1.00;1.00;;;;;19.96;54.94;100774.81;6253791;22;45220;-81
2022/06/25 06:14:47;;;;;;;;;2.00;0.67;;;;;19.94;55.00;100780.25;6253914;22;45642;-86
2022/06/25 06:17:15;;;;;;;;;2.67;1.67;;;;;19.91;55.14;100782.16;6255624;22;47399;-86
2022/06/25 06:19:40;;;;;;;;;1.00;1.00;;;;;19.92;54.87;100779.44;6254987;22;45284;-87
2022/06/25 06:22:06;;;;;;;;;0.67;0.67;;;;;19.93;54.63;100781.16;6277527;22;45386;-78
2022/06/25 06:24:31;;;;;;;;;2.67;1.67;;;;;19.93;54.79;100789.19;6279048;22;45430;-81
2022/06/25 06:26:56;;;;;;;;;1.00;0.00;;;;;19.97;54.32;100788.13;6278680;22;46085;-83
2022/06/25 06:29:22;;;;;;;;;1.00;1.00;;;;;20.01;54.59;100786.19;6279169;22;45208;-83
2022/06/25 06:31:47;;;;;;;;;2.00;1.00;;;;;20.04;53.71;100794.06;6276728;22;45271;-83
2022/06/25 06:34:14;;;;;;;;;1.00;1.00;;;;;20.11;53.72;100792.03;6250983;22;45745;-83
2022/06/25 06:36:39;;;;;;;;;1.00;1.00;;;;;20.19;53.57;100793.44;6278022;22;48123;-84
2022/06/25 06:39:04;;;;;;;;;1.33;0.67;;;;;20.24;52.92;100794.09;6276249;22;45176;-84
2022/06/25 06:42:11;;;;;;;;;1.67;0.33;;;;;20.27;52.70;100796.66;6250817;22;45216;-84
2022/06/25 06:44:45;;;;;;;;;0.67;0.67;;;;;20.30;52.68;100792.97;6275840;22;45168;-84
2022/06/25 06:47:10;;;;;;;;;0.00;0.00;;;;;20.35;52.61;100793.63;6251013;22;48563;-84
2022/06/25 06:49:38;;;;;;;;;1.00;1.00;;;;;20.42;52.40;100784.44;6250939;22;45744;-84
2022/06/25 06:52:04;;;;;;;;;2.00;2.00;;;;;20.47;52.26;100790.44;6251174;22;45308;-84
2022/06/25 06:54:29;;;;;;;;;0.00;0.00;;;;;20.51;51.95;100791.16;6277738;22;45441;-84
2022/06/25 06:57:04;;;;;;;;;1.33;0.00;;;;;20.53;52.02;100791.97;6274012;22;47644;-83
2022/06/25 06:59:29;;;;;;;;;0.00;0.00;;;;;20.56;51.65;100782.97;6277337;22;45394;-84
2022/06/25 07:01:55;;;;;;;;;0.00;0.00;;;;;20.56;51.65;100794.53;6249289;22;45365;-84
2022/06/25 07:04:20;;;;;;;;;1.67;1.67;;;;;20.56;51.84;100794.53;6250632;22;45507;-84
2022/06/25 07:06:45;;;;;;;;;4.00;2.00;;;;;20.60;51.53;100787.25;6248859;22;47839;-83
2022/06/25 07:09:11;;;;;;;;;0.67;0.67;;;;;20.66;52.02;100782.50;6249861;22;45681;-84
2022/06/25 07:11:36;;;;;;;;;1.00;1.00;;;;;20.76;51.76;100782.94;6250046;22;45605;-84
2022/06/25 07:14:06;;;;;;;;;2.67;1.33;;;;;20.85;51.52;100798.59;6278368;22;45310;-84
2022/06/25 07:16:33;;;;;;;;;1.00;1.00;;;;;20.90;51.53;100807.28;6278483;22;46244;-84
2022/06/25 07:19:00;;;;;;;;;0.67;0.67;;;;;20.94;51.54;100797.28;6276071;22;45354;-84
2022/06/25 07:21:26;;;;;;;;;1.00;0.00;;;;;21.01;51.61;100805.88;6250888;22;45387;-84
2022/06/25 07:23:52;;;;;;;;;0.33;0.33;;;;;21.08;51.26;100805.53;6278364;22;45303;-84
2022/06/25 07:26:18;;;;;;;;;2.67;2.00;;;;;21.17;51.16;100809.63;6250431;22;48029;-84
2022/06/25 07:28:44;;;;;;;;;2.00;1.00;;;;;21.23;50.92;100812.00;6278380;22;45155;-84
2022/06/25 07:31:09;;;;;;;;;0.00;0.00;;;;;21.24;50.46;100808.38;6279941;22;45454;-84
2022/06/25 07:33:35;;;;;;;;;0.67;0.67;;;;;21.26;51.19;100808.31;6251133;22;45621;-84
2022/06/25 07:36:00;;;;;;;;;1.33;1.33;;;;;21.26;51.04;100808.31;6276165;22;47315;-84
2022/06/25 07:38:26;;;;;;;;;0.00;0.00;;;;;21.23;51.03;100817.34;6275847;22;45199;-84
2022/06/25 07:40:51;;;;;;;;;0.00;0.00;;;;;21.20;50.14;100817.50;6250687;22;45388;-84
2022/06/25 07:43:17;;;;;;;;;1.00;1.00;;;;;21.21;50.10;100827.25;6250890;22;45153;-84
2022/06/25 07:45:43;;;;;;;;;0.00;0.00;;;;;21.21;50.47;100819.22;6251759;22;46998;-83
2022/06/25 07:48:08;;;;;;;;;0.00;0.00;;;;;21.24;50.32;100826.25;6250195;22;45777;-84
2022/06/25 07:53:18;;;;;;;;;0.33;0.33;;;;;21.17;50.36;100824.78;6277982;22;45303;-84
2022/06/25 07:55:44;;;;;;;;;0.33;0.33;;;;;21.16;50.09;100823.94;6277664;22;45459;-83
2022/06/25 07:58:09;;;;;;;;;1.00;1.00;;;;;21.19;50.30;100830.94;6278342;22;45265;-84
2022/06/25 08:00:35;;;;;;;;;1.00;1.00;;;;;21.18;50.08;100835.44;6277065;22;45267;-85
2022/06/25 08:03:01;;;;;;;;;1.00;1.00;;;;;21.19;49.66;100830.94;6250161;22;45469;-84
2022/06/25 08:05:27;;;;;;;;;0.00;0.00;;;;;21.23;49.63;100841.44;6250629;22;46869;-84
2022/06/25 08:07:53;;;;;;;;;0.67;0.67;;;;;21.22;48.96;100842.38;6278063;22;45211;-85
2022/06/25 08:10:19;;;;;;;;;0.67;0.00;;;;;21.18;48.90;100835.44;6249947;22;45234;-84
2022/06/25 08:12:45;;;;;;;;;1.00;1.00;;;;;21.18;48.19;100840.78;6276068;22;45639;-84
2022/06/25 08:15:11;;;;;;;;;0.33;0.33;;;;;21.19;48.36;100838.97;6249512;22;46531;-85
2022/06/25 08:17:37;;;;;;;;;1.67;1.00;;;;;21.25;48.22;100846.72;6250161;22;45175;-85
2022/06/25 08:20:03;;;;;;;;;0.33;0.33;;;;;21.28;48.07;100843.94;6278226;22;45377;-85
2022/06/25 08:22:29;;;;;;;;;1.00;1.00;;;;;21.26;48.13;100835.09;6249898;22;45429;-85
2022/06/25 08:24:56;;;;;;;;;0.00;0.00;;;;;21.25;48.22;100834.22;6249995;22;46889;-85
2022/06/25 08:27:22;;;;;;;;;1.00;1.00;;;;;21.28;48.43;100843.94;6277834;22;45353;-85
2022/06/25 08:29:47;;;;;;;;;2.67;1.33;;;;;21.30;48.60;100850.94;6277856;22;45339;-84
2022/06/25 08:32:13;;;;;;;;;2.00;2.00;;;;;21.27;48.74;100840.34;6275779;22;45510;-84
2022/06/25 08:34:38;;;;;;;;;0.67;0.67;;;;;21.25;48.44;100850.28;6278373;22;45147;-84
2022/06/25 08:37:05;;;;;;;;;1.67;1.67;;;;;21.22;48.80;100860.25;6250113;22;45415;-84
2022/06/25 08:39:31;;;;;;;;;2.67;0.67;;;;;21.20;48.67;100859.44;6276292;22;45128;-84
2022/06/25 08:42:00;;;;;;;;;3.00;1.67;;;;;21.15;49.00;100855.19;6275510;22;45381;-84
2022/06/25 08:44:25;;;;;;;;;2.00;1.00;;;;;21.14;48.85;100857.94;6249713;22;47752;-85
2022/06/25 08:46:51;;;;;;;;;3.00;2.00;;;;;21.08;49.20;100851.03;6249775;22;45359;-85
2022/06/25 08:49:18;;;;;;;;;2.00;2.00;;;;;21.08;49.44;100856.41;6251567;22;45424;-84
2022/06/25 08:51:45;;;;;;;;;0.00;0.00;;;;;21.06;49.00;100852.06;6279347;22;45182;-85
2022/06/25 08:54:10;;;;;;;;;2.67;2.67;;;;;21.09;49.37;100860.84;6252346;22;47313;-84
2022/06/25 08:56:36;;;;;;;;;1.67;1.67;;;;;21.07;49.72;100852.00;6250988;22;45805;-84
2022/06/25 08:59:03;;;;;;;;;3.33;2.00;;;;;21.03;50.22;100855.75;6251341;22;45220;-84
2022/06/25 09:01:28;;;;;;;;;0.67;0.67;;;;;21.01;50.83;100860.31;6278911;22;45319;-84
2022/06/25 09:03:54;;;;;;;;;2.00;1.00;;;;;21.00;51.07;100858.56;6250266;22;47552;-84
2022/06/25 09:06:21;;;;;;;;;1.67;1.67;;;;;20.96;51.00;100866.81;6276466;22;45283;-84
2022/06/25 09:09:12;;;;;;;;;1.33;1.33;;;;;20.89;50.90;100877.78;6277369;22;45274;-83
2022/06/25 09:11:52;;;;;;;;;1.67;0.67;;;;;20.82;50.81;100873.66;6249877;22;45372;-84
2022/06/25 09:14:20;;;;;;;;;1.67;1.67;;;;;20.75;51.17;100874.84;6278181;22;45504;-84
2022/06/25 09:17:04;;;;;;;;;1.00;1.00;;;;;20.73;51.63;100867.84;6277683;22;45143;-84
2022/06/25 09:19:44;;;;;;;;;1.33;1.33;;;;;20.80;52.10;100861.28;6250614;22;45218;-84
2022/06/25 09:22:12;;;;;;;;;3.00;3.00;;;;;20.97;51.58;100853.34;6249929;22;45729;-84
2022/06/25 09:24:43;;;;;;;;;2.33;1.67;;;;;21.13;51.61;100853.53;6250160;22;46980;-84
2022/06/25 09:27:08;;;;;;;;;2.00;2.00;;;;;21.28;51.65;100852.81;6250078;22;45264;-84
2022/06/25 09:29:39;;;;;;;;;1.67;1.33;;;;;21.45;51.04;100857.41;6275683;22;45292;-85
2022/06/25 09:32:05;;;;;;;;;2.00;2.00;;;;;21.57;50.68;100845.22;6250472;22;45417;-84
2022/06/25 09:34:35;;;;;;;;;1.33;1.33;;;;;21.72;50.62;100841.81;6249578;22;47144;-84
2022/06/25 09:37:21;;;;;;;;;2.00;1.00;;;;;21.89;49.76;100842.81;6249600;22;45514;-84
2022/06/25 09:39:57;;;;;;;;;2.00;2.00;;;;;21.99;49.51;100849.44;6278322;22;45291;-83
2022/06/25 09:42:28;;;;;;;;;1.00;1.00;;;;;22.00;49.25;100837.81;6275484;22;45536;-84
2022/06/25 09:45:06;;;;;;;;;1.33;1.33;;;;;21.99;48.94;100842.28;6251158;22;47305;-83
2022/06/25 09:47:39;;;;;;;;;2.00;2.00;;;;;21.96;49.07;100842.44;6275510;22;45399;-83
2022/06/25 09:50:09;;;;;;;;;2.00;2.00;;;;;22.06;48.98;100842.00;6249991;22;45378;-84
2022/06/25 09:52:36;;;;;;;;;3.00;2.33;;;;;22.14;49.08;100834.41;6249521;22;45188;-84
2022/06/25 09:55:05;;;;;;;;;4.00;2.00;;;;;22.15;48.48;100837.00;6277222;22;46098;-83
2022/06/25 09:57:31;;;;;;;;;2.00;1.67;;;;;22.12;48.44;100842.53;6247520;22;45414;-83
2022/06/25 09:59:59;;;;;;;;;1.00;1.00;;;;;22.09;48.62;100839.16;6249608;22;45292;-84
2022/06/25 10:02:29;;;;;;;;;2.00;1.00;;;;;22.09;48.88;100837.31;6249860;22;45208;-84
2022/06/25 10:05:01;;;;;;;;;3.33;2.33;;;;;22.10;48.78;100847.09;6275989;22;46991;-84
2022/06/25 10:10:21;;;;;;;;;2.00;2.00;;;;;21.98;48.00;100845.03;6277670;22;45287;-84
2022/06/25 10:16:33;;;;;;;;;;;;;;;;;;;;;
2022/06/25 10:19:00;;;;;;;;;1.33;1.33;;;;;21.82;48.08;100857.47;6270534;22;72047;-83
2022/06/25 10:21:26;;;;;;;;;1.00;1.00;;;;;21.83;48.50;100849.34;6250135;22;45284;-84
2022/06/25 10:24:00;;;;;;;;;2.33;2.33;;;;;21.93;48.96;100844.41;6278298;22;45239;-84
2022/06/25 10:26:26;;;;;;;;;1.00;0.00;;;;;22.10;48.32;100841.72;6275595;22;47554;-84
2022/06/25 10:28:54;;;;;;;;;5.00;2.00;;;;;22.26;48.34;100843.69;6250126;22;45249;-84
2022/06/25 10:31:23;;;;;;;;;1.67;1.67;;;;;22.39;48.10;100828.69;6275757;22;45187;-84
2022/06/25 10:33:56;;;;;;;;;2.00;2.00;;;;;22.53;47.75;100827.97;6250168;22;45477;-84
2022/06/25 10:36:53;;;;;;;;;2.00;2.00;;;;;22.69;47.34;100823.53;6251501;22;48192;-84
2022/06/25 10:39:25;;;;;;;;;1.67;1.67;;;;;22.81;46.94;100814.84;6275267;22;45200;-84
2022/06/25 10:45:33;;;;;;;;;2.33;2.33;;;;;22.99;45.69;100825.56;6278225;22;45169;-84
2022/06/25 10:48:00;;;;;;;;;1.67;1.67;;;;;22.99;45.41;100826.44;6249587;22;47444;-83
2022/06/25 10:50:25;;;;;;;;;0.00;0.00;;;;;23.01;45.29;100831.72;6250258;22;45272;-84
2022/06/25 10:53:05;;;;;;;;;3.33;2.00;;;;;22.96;45.05;100836.44;6278495;22;45509;-83
2022/06/25 10:55:35;;;;;;;;;1.67;1.67;;;;;22.95;44.86;100830.19;6274300;22;45281;-84
2022/06/25 10:58:17;;;;;;;;;2.00;2.00;;;;;22.92;44.88;100837.56;6249800;22;47216;-84
2022/06/25 11:00:52;;;;;;;;;4.00;2.33;;;;;22.87;44.93;100827.06;6278192;22;45169;-84
2022/06/25 11:03:38;;;;;;;;;1.67;1.67;;;;;22.86;44.54;100825.34;6250575;22;45413;-83
2022/06/25 11:06:20;;;;;;;;;2.00;2.00;;;;;22.87;45.00;100827.94;6276258;22;45483;-83
2022/06/25 11:08:47;;;;;;;;;3.33;2.67;;;;;22.95;44.79;100832.03;6251743;22;46879;-84
2022/06/25 11:11:21;;;;;;;;;1.00;1.00;;;;;23.04;44.93;100828.84;6248985;22;45245;-83
2022/06/25 11:13:47;;;;;;;;;2.67;2.67;;;;;23.07;44.97;100826.91;6250556;22;45271;-83
2022/06/25 11:16:14;;;;;;;;;2.67;2.67;;;;;23.12;44.56;100832.00;6276720;22;45465;-83
2022/06/25 11:18:51;;;;;;;;;1.67;1.67;;;;;23.13;44.96;100839.13;6251182;22;48311;-83
2022/06/25 11:21:34;;;;;;;;;1.67;1.67;;;;;23.14;44.44;100837.28;6250731;22;45190;-84
2022/06/25 11:24:23;;;;;;;;;4.67;3.33;;;;;23.15;44.92;100839.91;6250916;22;45277;-84
2022/06/25 11:29:41;;;;;;;;;2.00;2.00;;;;;23.17;44.90;100845.19;6278263;22;45484;-83
2022/06/25 11:32:08;;;;;;;;;2.00;2.00;;;;;23.14;44.92;100839.97;6249733;22;45205;-84
2022/06/25 11:34:34;;;;;;;;;3.00;2.00;;;;;23.08;45.54;100847.41;6250089;22;45264;-84
2022/06/25 11:37:05;;;;;;;;;2.33;2.33;;;;;23.05;45.33;100855.66;6249868;22;45438;-83
2022/06/25 11:39:32;;;;;;;;;1.67;1.67;;;;;23.04;45.76;100855.72;6277937;22;46135;-83
2022/06/25 11:42:08;;;;;;;;;4.00;3.00;;;;;22.99;45.69;100850.63;6275409;22;45482;-83
2022/06/25 11:44:51;;;;;;;;;4.00;2.00;;;;;22.88;45.69;100837.72;6249467;22;45448;-84
2022/06/25 11:47:24;;;;;;;;;4.67;4.67;;;;;22.80;45.76;100844.44;6274721;22;45815;-84
2022/06/25 11:49:51;;;;;;;;;2.67;2.67;;;;;22.74;45.98;100845.63;6274804;22;47175;-84
2022/06/25 11:52:22;;;;;;;;;1.67;1.67;;;;;22.67;46.08;100847.78;6274467;22;45180;-84